Time;durP1;ratioP1;P1;durP2;ratioP2;P2;SDS_P1;SDS_P2;PMS_P1;PMS_P2;Temp;Humidity;BMP_temperature;BMP_pressure;BME280_temperature;BME280_humidity;BME280_pressure;Samples;Min_cycle;Max_cycle;Signal;HPM_P1;HPM_P2
2023/09/11 00:00:59;;;;;;;3.53;2.05;;;;;;;;;;5043516;28;20339;-60
2023/09/11 00:03:25;;;;;;;2.50;1.85;;;;;;;;;;5023830;28;20034;-59
2023/09/11 00:05:50;;;;;;;3.28;2.00;;;;;;;;;;5007847;28;20502;-59
2023/09/11 00:08:15;;;;;;;3.70;2.08;;;;;;;;;;5014372;28;20032;-59
2023/09/11 00:10:40;;;;;;;3.17;2.20;;;;;;;;;;5027385;28;20033;-60
2023/09/11 00:13:06;;;;;;;3.33;1.92;;;;;;;;;;5023331;28;20046;-60
2023/09/11 00:15:32;;;;;;;3.33;2.10;;;;;;;;;;5023574;28;20592;-60
2023/09/11 00:17:58;;;;;;;3.05;1.98;;;;;;;;;;5032271;28;20284;-58
2023/09/11 00:20:23;;;;;;;3.65;1.98;;;;;;;;;;5043819;28;20902;-60
2023/09/11 00:22:48;;;;;;;3.42;1.95;;;;;;;;;;5026387;28;20052;-60
2023/09/11 00:25:14;;;;;;;3.30;2.10;;;;;;;;;;5042865;28;20517;-60
2023/09/11 00:27:39;;;;;;;3.28;2.00;;;;;;;;;;5015640;28;20026;-59
2023/09/11 00:30:08;;;;;;;3.63;2.00;;;;;;;;;;5042272;28;20156;-61
2023/09/11 00:32:33;;;;;;;2.67;1.83;;;;;;;;;;5043660;28;20306;-60
2023/09/11 00:34:58;;;;;;;2.42;1.77;;;;;;;;;;5023065;28;20106;-59
2023/09/11 00:37:23;;;;;;;3.73;2.10;;;;;;;;;;5009069;28;20516;-59
2023/09/11 00:39:49;;;;;;;2.43;1.60;;;;;;;;;;5037229;28;20298;-61
2023/09/11 00:42:14;;;;;;;3.17;1.92;;;;;;;;;;5015529;28;20124;-60
2023/09/11 00:44:40;;;;;;;2.70;1.50;;;;;;;;;;5017604;28;20079;-60
2023/09/11 00:47:05;;;;;;;2.85;1.60;;;;;;;;;;5042844;28;20279;-60
2023/09/11 00:49:30;;;;;;;3.67;1.70;;;;;;;;;;5036658;28;20044;-61
2023/09/11 00:51:55;;;;;;;3.07;1.80;;;;;;;;;;5026859;28;20037;-59
2023/09/11 00:54:21;;;;;;;3.00;1.90;;;;;;;;;;5026075;28;20283;-60
2023/09/11 00:56:46;;;;;;;2.88;1.80;;;;;;;;;;5026447;28;20037;-59
2023/09/11 00:59:12;;;;;;;3.70;1.70;;;;;;;;;;5036248;28;20049;-59
2023/09/11 01:01:37;;;;;;;2.90;1.95;;;;;;;;;;5020565;28;20128;-59
2023/09/11 01:04:02;;;;;;;2.97;1.80;;;;;;;;;;5042039;28;20037;-59
2023/09/11 01:06:28;;;;;;;2.92;1.58;;;;;;;;;;5026100;28;20136;-59
2023/09/11 01:08:55;;;;;;;2.90;1.80;;;;;;;;;;5036680;28;20031;-59
2023/09/11 01:11:20;;;;;;;2.75;1.90;;;;;;;;;;5022871;28;20041;-59
2023/09/11 01:13:45;;;;;;;2.40;1.65;;;;;;;;;;5042436;28;20350;-61
2023/09/11 01:16:16;;;;;;;2.97;1.75;;;;;;;;;;5043612;28;20082;-58
2023/09/11 01:18:47;;;;;;;3.28;1.90;;;;;;;;;;5019759;28;20110;-59
2023/09/11 01:21:20;;;;;;;2.50;1.60;;;;;;;;;;5042423;28;20041;-58
2023/09/11 01:23:52;;;;;;;2.47;1.70;;;;;;;;;;5042841;28;20025;-60
2023/09/11 01:26:36;;;;;;;2.83;1.88;;;;;;;;;;5042164;28;20120;-60
2023/09/11 01:29:16;;;;;;;2.65;1.80;;;;;;;;;;5037629;28;20127;-61
2023/09/11 01:31:42;;;;;;;2.47;1.50;;;;;;;;;;5025942;28;20467;-60
2023/09/11 01:34:07;;;;;;;2.55;1.58;;;;;;;;;;5041800;28;20041;-61
2023/09/11 01:36:33;;;;;;;2.42;1.50;;;;;;;;;;5026212;28;20037;-60
2023/09/11 01:38:58;;;;;;;3.55;1.73;;;;;;;;;;5040083;28;20057;-60
2023/09/11 01:41:25;;;;;;;2.55;1.58;;;;;;;;;;5024460;28;20065;-60
2023/09/11 01:43:50;;;;;;;2.47;1.70;;;;;;;;;;5024878;28;20041;-61
2023/09/11 01:46:16;;;;;;;2.70;1.90;;;;;;;;;;5025961;28;20029;-60
2023/09/11 01:48:41;;;;;;;3.22;1.70;;;;;;;;;;5023422;28;20041;-60
2023/09/11 01:51:07;;;;;;;2.50;1.80;;;;;;;;;;5043740;28;20025;-60
2023/09/11 01:53:32;;;;;;;3.30;1.65;;;;;;;;;;5042437;28;20279;-60
2023/09/11 01:55:58;;;;;;;2.50;1.70;;;;;;;;;;5025754;28;20482;-61
2023/09/11 01:58:23;;;;;;;2.75;1.50;;;;;;;;;;5025292;28;20283;-60
2023/09/11 02:00:49;;;;;;;2.75;1.50;;;;;;;;;;5039384;28;20045;-61
2023/09/11 02:03:16;;;;;;;2.27;1.43;;;;;;;;;;5021986;28;20037;-61
2023/09/11 02:05:41;;;;;;;2.67;1.70;;;;;;;;;;5035688;28;20041;-61
2023/09/11 02:08:06;;;;;;;2.83;1.33;;;;;;;;;;5024462;28;20091;-60
2023/09/11 02:10:32;;;;;;;2.23;1.60;;;;;;;;;;5036118;28;20939;-60
2023/09/11 02:12:57;;;;;;;2.60;1.42;;;;;;;;;;5025410;28;20045;-62
2023/09/11 02:15:22;;;;;;;2.50;1.37;;;;;;;;;;5020938;28;20037;-60
2023/09/11 02:17:48;;;;;;;2.43;1.60;;;;;;;;;;5019669;28;20302;-62
2023/09/11 02:20:13;;;;;;;2.67;1.73;;;;;;;;;;5022255;28;20312;-60
2023/09/11 02:22:38;;;;;;;2.97;1.60;;;;;;;;;;5025626;28;20040;-60
2023/09/11 02:25:04;;;;;;;1.55;1.13;;;;;;;;;;5021974;28;20693;-60
2023/09/11 02:27:29;;;;;;;2.40;1.50;;;;;;;;;;5005324;28;20041;-60
2023/09/11 02:29:54;;;;;;;2.93;1.60;;;;;;;;;;5014865;28;20033;-60
2023/09/11 02:32:19;;;;;;;2.50;1.30;;;;;;;;;;5025523;28;20732;-61
2023/09/11 02:34:45;;;;;;;2.83;1.40;;;;;;;;;;5021803;28;20280;-60
2023/09/11 02:37:10;;;;;;;2.97;1.30;;;;;;;;;;5005420;28;20346;-60
2023/09/11 02:39:36;;;;;;;2.33;1.50;;;;;;;;;;5027848;28;20902;-60
2023/09/11 02:42:01;;;;;;;2.10;1.30;;;;;;;;;;5042024;28;20291;-59
2023/09/11 02:44:26;;;;;;;2.65;1.30;;;;;;;;;;5024328;28;20407;-59
2023/09/11 02:46:52;;;;;;;3.77;1.40;;;;;;;;;;5046141;28;20087;-59
2023/09/11 02:49:18;;;;;;;2.70;1.42;;;;;;;;;;5024452;28;20355;-61
2023/09/11 02:51:43;;;;;;;2.50;1.50;;;;;;;;;;5028987;28;20053;-61
2023/09/11 02:54:08;;;;;;;2.20;1.30;;;;;;;;;;5045670;28;20036;-60
2023/09/11 02:56:37;;;;;;;2.47;1.38;;;;;;;;;;5045469;28;20036;-59
2023/09/11 02:59:03;;;;;;;2.22;1.50;;;;;;;;;;5041319;28;20041;-59
2023/09/11 03:01:28;;;;;;;2.23;1.30;;;;;;;;;;5042900;28;20505;-60
2023/09/11 03:03:53;;;;;;;2.60;1.33;;;;;;;;;;5028723;28;20275;-60
2023/09/11 03:06:18;;;;;;;2.08;1.27;;;;;;;;;;5045562;28;20044;-60
2023/09/11 03:08:44;;;;;;;2.73;1.43;;;;;;;;;;5027567;28;20033;-59
2023/09/11 03:11:09;;;;;;;2.53;1.37;;;;;;;;;;5043856;28;20287;-59
2023/09/11 03:13:35;;;;;;;3.17;1.23;;;;;;;;;;5044335;28;20294;-60
2023/09/11 03:16:26;;;;;;;2.30;1.10;;;;;;;;;;5044881;28;20485;-59
2023/09/11 03:18:52;;;;;;;1.90;1.10;;;;;;;;;;5041508;28;20203;-59
2023/09/11 03:21:17;;;;;;;1.70;1.10;;;;;;;;;;5040408;28;20446;-59
2023/09/11 03:23:42;;;;;;;2.73;1.50;;;;;;;;;;5029394;28;20036;-59
2023/09/11 03:26:11;;;;;;;1.67;1.10;;;;;;;;;;5027252;28;20311;-61
2023/09/11 03:28:36;;;;;;;1.90;1.13;;;;;;;;;;5027760;28;20865;-60
2023/09/11 03:31:02;;;;;;;2.20;1.40;;;;;;;;;;5024313;28;20041;-59
2023/09/11 03:33:28;;;;;;;2.08;1.20;;;;;;;;;;5008149;28;20284;-61
2023/09/11 03:35:53;;;;;;;2.33;1.17;;;;;;;;;;5032782;28;20123;-60
2023/09/11 03:38:18;;;;;;;1.83;1.30;;;;;;;;;;5027826;28;20275;-60
2023/09/11 03:40:45;;;;;;;2.03;1.10;;;;;;;;;;5025928;28;20872;-60
2023/09/11 03:43:10;;;;;;;1.90;1.30;;;;;;;;;;5040174;28;20037;-60
2023/09/11 03:45:35;;;;;;;2.20;1.33;;;;;;;;;;5038285;28;20040;-61
2023/09/11 03:48:00;;;;;;;1.90;1.27;;;;;;;;;;5030186;28;20299;-61
2023/09/11 03:50:26;;;;;;;2.55;1.10;;;;;;;;;;5029964;28;20672;-59
2023/09/11 03:52:51;;;;;;;1.60;1.10;;;;;;;;;;5013928;28;20029;-60
2023/09/11 03:55:16;;;;;;;1.37;1.10;;;;;;;;;;5016278;28;21097;-60
2023/09/11 03:57:42;;;;;;;1.90;1.10;;;;;;;;;;5035138;28;20287;-60
2023/09/11 04:00:07;;;;;;;1.83;1.08;;;;;;;;;;5036545;28;20494;-61
2023/09/11 04:02:33;;;;;;;1.63;1.10;;;;;;;;;;5026647;28;20040;-60
2023/09/11 04:04:58;;;;;;;2.35;1.10;;;;;;;;;;5044132;28;20112;-59
2023/09/11 04:07:24;;;;;;;2.25;1.30;;;;;;;;;;5044020;28;20037;-59
2023/09/11 04:09:49;;;;;;;2.17;1.40;;;;;;;;;;5043123;28;20052;-60
2023/09/11 04:12:16;;;;;;;1.67;1.00;;;;;;;;;;5027819;28;20501;-61
2023/09/11 04:14:42;;;;;;;1.70;1.10;;;;;;;;;;5044538;28;20279;-60
2023/09/11 04:17:10;;;;;;;1.98;1.05;;;;;;;;;;5043630;28;20661;-62
2023/09/11 04:19:35;;;;;;;2.25;1.10;;;;;;;;;;5024493;28;20041;-60
2023/09/11 04:22:01;;;;;;;1.95;0.98;;;;;;;;;;5023482;28;20071;-59
2023/09/11 04:24:26;;;;;;;2.00;1.00;;;;;;;;;;5027353;28;20048;-59
2023/09/11 04:26:52;;;;;;;1.48;0.90;;;;;;;;;;5026690;28;20051;-61
2023/09/11 04:29:17;;;;;;;2.35;1.10;;;;;;;;;;5024846;28;20026;-60
2023/09/11 04:31:42;;;;;;;1.95;1.20;;;;;;;;;;5026924;28;20072;-60
2023/09/11 04:34:08;;;;;;;1.80;1.10;;;;;;;;;;5043225;28;20040;-61
2023/09/11 04:36:33;;;;;;;2.10;1.23;;;;;;;;;;5026613;28;20279;-60
2023/09/11 04:38:58;;;;;;;2.10;1.02;;;;;;;;;;5025128;28;20063;-61
2023/09/11 04:41:23;;;;;;;1.90;1.10;;;;;;;;;;5036748;28;20136;-60
2023/09/11 04:43:49;;;;;;;2.10;1.20;;;;;;;;;;5026327;28;20873;-59
2023/09/11 04:46:14;;;;;;;1.70;1.20;;;;;;;;;;5042968;28;20368;-59
2023/09/11 04:48:39;;;;;;;1.60;1.00;;;;;;;;;;5043252;28;20041;-60
2023/09/11 04:51:05;;;;;;;2.00;1.20;;;;;;;;;;5019997;28;20710;-59
2023/09/11 04:53:30;;;;;;;1.92;1.10;;;;;;;;;;5043009;28;20279;-60
2023/09/11 04:55:56;;;;;;;1.43;1.00;;;;;;;;;;5042908;28;20613;-59
2023/09/11 04:58:22;;;;;;;1.35;0.98;;;;;;;;;;5023498;28;20284;-60
2023/09/11 05:00:47;;;;;;;2.58;1.20;;;;;;;;;;5016172;28;20083;-60
2023/09/11 05:03:13;;;;;;;2.20;1.20;;;;;;;;;;5042218;28;20057;-60
2023/09/11 05:05:40;;;;;;;1.52;0.98;;;;;;;;;;5026416;28;20056;-60
2023/09/11 05:08:06;;;;;;;2.25;1.30;;;;;;;;;;5042094;28;20040;-59
2023/09/11 05:10:31;;;;;;;1.65;1.08;;;;;;;;;;5025796;28;20099;-59
2023/09/11 05:12:57;;;;;;;1.85;0.95;;;;;;;;;;5042583;28;20052;-59
2023/09/11 05:15:22;;;;;;;2.13;1.20;;;;;;;;;;5021195;28;20061;-59
2023/09/11 05:17:47;;;;;;;1.73;1.10;;;;;;;;;;5038128;28;20145;-60
2023/09/11 05:20:13;;;;;;;1.70;1.20;;;;;;;;;;5022993;28;20056;-60
2023/09/11 05:22:39;;;;;;;2.47;1.10;;;;;;;;;;5041178;28;20284;-59
2023/09/11 05:25:05;;;;;;;2.05;1.00;;;;;;;;;;5042276;28;20037;-59
2023/09/11 05:27:30;;;;;;;2.00;1.20;;;;;;;;;;5025696;28;20068;-60
2023/09/11 05:29:55;;;;;;;1.98;1.00;;;;;;;;;;5025933;28;20124;-60
2023/09/11 05:32:20;;;;;;;4.38;1.10;;;;;;;;;;5021915;28;20049;-61
2023/09/11 05:34:46;;;;;;;3.83;1.30;;;;;;;;;;5040802;28;20434;-61
2023/09/11 05:37:11;;;;;;;3.37;1.30;;;;;;;;;;5022294;28;20482;-60
2023/09/11 05:39:36;;;;;;;3.27;1.30;;;;;;;;;;5022604;28;20800;-60
2023/09/11 05:42:01;;;;;;;3.30;1.40;;;;;;;;;;5034041;28;20335;-59
2023/09/11 05:44:27;;;;;;;3.20;1.25;;;;;;;;;;5037413;28;20843;-59
2023/09/11 05:46:52;;;;;;;5.07;1.53;;;;;;;;;;5036360;28;20033;-60
2023/09/11 05:49:17;;;;;;;5.57;1.92;;;;;;;;;;5025494;28;20407;-59
2023/09/11 05:51:43;;;;;;;5.60;1.10;;;;;;;;;;5035935;28;20053;-60
2023/09/11 05:54:10;;;;;;;2.83;1.25;;;;;;;;;;5025126;28;20830;-60
2023/09/11 05:56:35;;;;;;;3.65;1.33;;;;;;;;;;5042149;28;20033;-60
2023/09/11 05:59:01;;;;;;;2.57;1.30;;;;;;;;;;5025643;28;20153;-60
2023/09/11 06:01:27;;;;;;;6.87;1.20;;;;;;;;;;5042859;28;20306;-60
2023/09/11 06:03:52;;;;;;;3.00;1.17;;;;;;;;;;5062996;23;20082;-59
2023/09/11 06:06:17;;;;;;;3.57;1.23;;;;;;;;;;5042221;28;20024;-59
2023/09/11 06:08:42;;;;;;;4.57;1.40;;;;;;;;;;5043975;28;20820;-58
2023/09/11 06:11:08;;;;;;;4.00;1.33;;;;;;;;;;5044321;28;20251;-60
2023/09/11 06:13:35;;;;;;;3.07;1.20;;;;;;;;;;5043134;28;20382;-61
2023/09/11 06:16:01;;;;;;;4.00;1.50;;;;;;;;;;5043117;28;20259;-60
2023/09/11 06:18:26;;;;;;;5.00;1.50;;;;;;;;;;5043811;28;20396;-59
2023/09/11 06:20:51;;;;;;;2.90;1.20;;;;;;;;;;5045659;28;20287;-59
2023/09/11 06:23:16;;;;;;;3.47;1.15;;;;;;;;;;5044722;28;20078;-59
2023/09/11 06:25:41;;;;;;;4.63;1.33;;;;;;;;;;5049538;28;20512;-59
2023/09/11 06:28:07;;;;;;;4.97;1.27;;;;;;;;;;5049490;28;20315;-59
2023/09/11 06:30:33;;;;;;;3.05;1.27;;;;;;;;;;5031110;28;20267;-59
2023/09/11 06:32:58;;;;;;;5.22;1.30;;;;;;;;;;5024511;28;20314;-60
2023/09/11 06:35:23;;;;;;;4.37;1.10;;;;;;;;;;5049026;28;20013;-60
2023/09/11 06:37:49;;;;;;;4.32;1.63;;;;;;;;;;5030853;28;20803;-60
2023/09/11 06:40:14;;;;;;;3.58;1.33;;;;;;;;;;5030547;28;20025;-58
2023/09/11 06:42:39;;;;;;;3.42;1.38;;;;;;;;;;5046685;28;20051;-60
2023/09/11 06:45:05;;;;;;;4.30;1.50;;;;;;;;;;5029599;28;20434;-59
2023/09/11 06:47:30;;;;;;;6.28;1.55;;;;;;;;;;5015784;28;20028;-59
2023/09/11 06:49:55;;;;;;;3.17;1.23;;;;;;;;;;5047148;28;20025;-59
2023/09/11 06:52:21;;;;;;;3.57;1.40;;;;;;;;;;5047556;28;20096;-59
2023/09/11 06:54:46;;;;;;;3.80;1.10;;;;;;;;;;5048810;28;20659;-60
2023/09/11 06:57:11;;;;;;;4.50;1.10;;;;;;;;;;5030624;28;20105;-59
2023/09/11 06:59:37;;;;;;;3.97;1.30;;;;;;;;;;5048361;28;20270;-58
2023/09/11 07:02:02;;;;;;;2.95;1.25;;;;;;;;;;5039933;28;20555;-60
2023/09/11 07:04:27;;;;;;;3.50;1.30;;;;;;;;;;5045749;28;20116;-58
2023/09/11 07:06:53;;;;;;;3.77;1.30;;;;;;;;;;5047883;28;20024;-58
2023/09/11 07:09:19;;;;;;;4.03;1.35;;;;;;;;;;5047739;28;20879;-59
2023/09/11 07:11:45;;;;;;;3.20;1.30;;;;;;;;;;5040834;28;20359;-59
2023/09/11 07:14:12;;;;;;;3.80;1.20;;;;;;;;;;5046358;28;20036;-59
2023/09/11 07:16:38;;;;;;;5.00;1.23;;;;;;;;;;5047562;28;20562;-58
2023/09/11 07:19:03;;;;;;;4.72;1.50;;;;;;;;;;5046508;28;20104;-59
2023/09/11 07:21:28;;;;;;;3.50;1.20;;;;;;;;;;5042879;28;20057;-59
2023/09/11 07:23:53;;;;;;;4.13;1.60;;;;;;;;;;5043612;28;20032;-59
2023/09/11 07:26:19;;;;;;;3.00;1.17;;;;;;;;;;5046367;28;20017;-58
2023/09/11 07:29:05;;;;;;;4.15;1.00;;;;;;;;;;5046167;28;20267;-60
2023/09/11 07:31:30;;;;;;;2.70;1.30;;;;;;;;;;5043219;28;20038;-59
2023/09/11 07:33:56;;;;;;;2.97;1.20;;;;;;;;;;5044709;28;20513;-60
2023/09/11 07:36:21;;;;;;;3.10;1.10;;;;;;;;;;5047478;28;20086;-60
2023/09/11 07:38:46;;;;;;;3.10;1.35;;;;;;;;;;5045804;28;20300;-59
2023/09/11 07:41:15;;;;;;;3.00;1.00;;;;;;;;;;5046806;28;20041;-62
2023/09/11 07:43:41;;;;;;;2.83;1.25;;;;;;;;;;5041158;28;20292;-60
2023/09/11 07:46:07;;;;;;;3.95;1.45;;;;;;;;;;5047364;28;20083;-60
2023/09/11 07:48:34;;;;;;;2.30;1.23;;;;;;;;;;5045851;28;20119;-59
2023/09/11 07:51:00;;;;;;;4.68;1.33;;;;;;;;;;5046043;28;20079;-60
2023/09/11 07:53:25;;;;;;;2.63;1.10;;;;;;;;;;5040661;28;20456;-60
2023/09/11 07:55:50;;;;;;;3.63;1.20;;;;;;;;;;5047303;28;20279;-60
2023/09/11 07:58:18;;;;;;;4.77;1.30;;;;;;;;;;5045420;28;20060;-60
2023/09/11 08:00:44;;;;;;;2.70;1.40;;;;;;;;;;5045690;28;20307;-59
2023/09/11 08:03:09;;;;;;;3.00;1.27;;;;;;;;;;5040448;28;20029;-59
2023/09/11 08:05:34;;;;;;;2.73;0.90;;;;;;;;;;5047251;28;20037;-59
2023/09/11 08:08:01;;;;;;;2.47;0.97;;;;;;;;;;5047016;28;20284;-58
2023/09/11 08:10:27;;;;;;;3.50;1.55;;;;;;;;;;5046792;28;20088;-60
2023/09/11 08:12:52;;;;;;;5.20;1.27;;;;;;;;;;5040341;28;20076;-59
2023/09/11 08:15:17;;;;;;;3.57;1.03;;;;;;;;;;5045725;28;20343;-59
2023/09/11 08:17:43;;;;;;;3.85;1.60;;;;;;;;;;5046580;28;20114;-59
2023/09/11 08:20:08;;;;;;;2.13;1.03;;;;;;;;;;5045246;28;20025;-59
2023/09/11 08:22:33;;;;;;;2.40;1.30;;;;;;;;;;5040387;28;20284;-59
2023/09/11 08:24:58;;;;;;;4.13;1.40;;;;;;;;;;5044814;28;20551;-59
2023/09/11 08:27:24;;;;;;;2.97;1.10;;;;;;;;;;5046566;28;20033;-59
2023/09/11 08:29:49;;;;;;;2.95;1.25;;;;;;;;;;5044971;28;20279;-60
2023/09/11 08:32:14;;;;;;;3.30;1.10;;;;;;;;;;5046742;28;20041;-61
2023/09/11 08:34:39;;;;;;;2.70;0.90;;;;;;;;;;5045754;28;20045;-60
2023/09/11 08:37:05;;;;;;;2.37;1.30;;;;;;;;;;5045037;28;20064;-60
2023/09/11 08:39:30;;;;;;;2.65;1.17;;;;;;;;;;5044661;28;20103;-60
2023/09/11 08:41:55;;;;;;;2.13;1.10;;;;;;;;;;5044192;28;20053;-60
2023/09/11 08:44:20;;;;;;;2.53;1.10;;;;;;;;;;5039147;28;20045;-61
2023/09/11 08:46:46;;;;;;;3.90;1.47;;;;;;;;;;5045697;28;20127;-59
2023/09/11 08:49:11;;;;;;;2.03;1.17;;;;;;;;;;5046295;28;20037;-60
2023/09/11 08:51:46;;;;;;;2.55;1.25;;;;;;;;;;5045223;28;20783;-60
2023/09/11 08:54:11;;;;;;;3.03;1.30;;;;;;;;;;5044166;28;20041;-59
2023/09/11 08:56:37;;;;;;;2.80;1.13;;;;;;;;;;5045257;28;20506;-60
2023/09/11 08:59:02;;;;;;;3.15;1.40;;;;;;;;;;5046150;28;20470;-58
2023/09/11 09:01:27;;;;;;;2.30;1.20;;;;;;;;;;5045918;28;20414;-58
2023/09/11 09:03:53;;;;;;;3.63;1.13;;;;;;;;;;5038099;28;20121;-59
2023/09/11 09:06:19;;;;;;;2.03;1.02;;;;;;;;;;5044435;28;20029;-58
2023/09/11 09:08:44;;;;;;;2.00;1.30;;;;;;;;;;5044480;28;20505;-58
2023/09/11 09:11:09;;;;;;;3.37;1.10;;;;;;;;;;5040064;28;20045;-59
2023/09/11 09:13:35;;;;;;;3.37;1.40;;;;;;;;;;5019853;28;20302;-58
2023/09/11 09:16:00;;;;;;;3.17;1.30;;;;;;;;;;5044322;28;20044;-60
2023/09/11 09:18:26;;;;;;;2.57;1.20;;;;;;;;;;5043985;28;20533;-59
2023/09/11 09:20:51;;;;;;;2.33;1.30;;;;;;;;;;5045878;28;20299;-60
2023/09/11 09:23:17;;;;;;;3.38;1.40;;;;;;;;;;5039357;28;20272;-58
2023/09/11 09:25:42;;;;;;;2.70;1.35;;;;;;;;;;5045681;28;20082;-58
2023/09/11 09:28:07;;;;;;;2.70;1.10;;;;;;;;;;5045880;28;20584;-59
2023/09/11 09:30:32;;;;;;;2.03;1.00;;;;;;;;;;5045728;28;20524;-58
2023/09/11 09:32:58;;;;;;;2.87;1.30;;;;;;;;;;5040719;28;20381;-58
2023/09/11 09:35:28;;;;;;;2.17;1.00;;;;;;;;;;5042636;28;20029;-58
2023/09/11 09:37:54;;;;;;;2.58;1.23;;;;;;;;;;5027567;28;20033;-59
2023/09/11 09:40:28;;;;;;;4.05;1.20;;;;;;;;;;5027018;28;20060;-60
2023/09/11 09:42:54;;;;;;;2.20;1.17;;;;;;;;;;5039577;28;20044;-58
2023/09/11 09:45:29;;;;;;;2.33;1.10;;;;;;;;;;5042998;28;20036;-58
2023/09/11 09:48:05;;;;;;;4.25;1.27;;;;;;;;;;5043581;28;20048;-60
2023/09/11 09:50:30;;;;;;;3.05;1.20;;;;;;;;;;5044124;28;20410;-59
2023/09/11 09:52:55;;;;;;;2.92;1.45;;;;;;;;;;5040684;28;20045;-58
2023/09/11 09:55:20;;;;;;;2.67;1.23;;;;;;;;;;5040269;28;20041;-58
2023/09/11 09:57:45;;;;;;;2.27;1.13;;;;;;;;;;5043833;28;20033;-60
2023/09/11 10:00:11;;;;;;;1.77;1.10;;;;;;;;;;5039863;28;20033;-59
2023/09/11 10:02:37;;;;;;;3.10;1.13;;;;;;;;;;5024700;28;20136;-60
2023/09/11 10:05:03;;;;;;;2.95;1.33;;;;;;;;;;5038569;28;20497;-58
2023/09/11 10:07:39;;;;;;;3.42;1.45;;;;;;;;;;5043591;28;20083;-60
2023/09/11 10:10:23;;;;;;;2.92;1.30;;;;;;;;;;5042451;28;20511;-58
2023/09/11 10:13:04;;;;;;;1.92;0.90;;;;;;;;;;5044051;28;20036;-60
2023/09/11 10:15:29;;;;;;;3.05;1.45;;;;;;;;;;5041549;28;20107;-57
2023/09/11 10:17:55;;;;;;;3.33;1.40;;;;;;;;;;5039909;28;20178;-59
2023/09/11 10:20:20;;;;;;;5.30;1.65;;;;;;;;;;5023964;28;20525;-59
2023/09/11 10:22:46;;;;;;;2.90;1.45;;;;;;;;;;5024730;28;20017;-63
2023/09/11 10:25:11;;;;;;;2.80;1.23;;;;;;;;;;5037876;28;20133;-58
2023/09/11 10:27:36;;;;;;;2.40;1.27;;;;;;;;;;5043765;28;20052;-58
2023/09/11 10:30:04;;;;;;;2.87;1.40;;;;;;;;;;5044830;28;20037;-58
2023/09/11 10:32:36;;;;;;;2.92;1.45;;;;;;;;;;5043510;28;20206;-58
2023/09/11 10:35:01;;;;;;;2.40;1.25;;;;;;;;;;5038310;28;20120;-59
2023/09/11 10:37:26;;;;;;;3.45;1.75;;;;;;;;;;5044990;28;20546;-60
2023/09/11 10:39:52;;;;;;;2.67;1.40;;;;;;;;;;5025803;28;20066;-59
2023/09/11 10:42:17;;;;;;;2.88;1.65;;;;;;;;;;5044389;28;20053;-58
2023/09/11 10:44:42;;;;;;;2.63;1.10;;;;;;;;;;5036519;28;20025;-58
2023/09/11 10:47:11;;;;;;;2.33;1.20;;;;;;;;;;5043495;28;20168;-58
2023/09/11 10:49:40;;;;;;;3.00;1.20;;;;;;;;;;5044633;28;20279;-59
2023/09/11 10:52:06;;;;;;;2.38;1.20;;;;;;;;;;5027274;28;20025;-63
2023/09/11 10:54:31;;;;;;;2.45;1.20;;;;;;;;;;5036566;28;20036;-58
2023/09/11 10:56:56;;;;;;;2.20;1.20;;;;;;;;;;5044533;28;20037;-59
2023/09/11 10:59:22;;;;;;;3.30;1.60;;;;;;;;;;5043068;28;20767;-59
2023/09/11 11:01:47;;;;;;;2.50;1.30;;;;;;;;;;5044456;28;20037;-60
2023/09/11 11:04:13;;;;;;;2.85;1.42;;;;;;;;;;5039894;28;20046;-59
2023/09/11 11:06:39;;;;;;;2.40;1.42;;;;;;;;;;5051038;28;20045;-61
2023/09/11 11:09:04;;;;;;;2.45;1.40;;;;;;;;;;5036907;28;20052;-59
2023/09/11 11:11:32;;;;;;;3.35;1.50;;;;;;;;;;5050712;28;20114;-60
2023/09/11 11:14:10;;;;;;;1.80;1.10;;;;;;;;;;5043199;28;20034;-59
2023/09/11 11:16:38;;;;;;;2.33;1.30;;;;;;;;;;5045082;28;20048;-60
2023/09/11 11:19:04;;;;;;;2.67;1.40;;;;;;;;;;5047874;28;20037;-59
2023/09/11 11:21:39;;;;;;;1.77;1.20;;;;;;;;;;5048119;28;20415;-60
2023/09/11 11:24:05;;;;;;;3.08;1.40;;;;;;;;;;5026563;28;20037;-59
2023/09/11 11:26:30;;;;;;;2.13;1.08;;;;;;;;;;5045217;28;20542;-60
2023/09/11 11:28:56;;;;;;;1.85;1.20;;;;;;;;;;5048151;28;20146;-60
2023/09/11 11:31:22;;;;;;;2.92;1.40;;;;;;;;;;5046591;28;20082;-59
2023/09/11 11:33:47;;;;;;;2.95;1.23;;;;;;;;;;5044644;28;20025;-59
2023/09/11 11:36:14;;;;;;;2.38;1.20;;;;;;;;;;5043057;28;20122;-59
2023/09/11 11:38:40;;;;;;;3.97;1.30;;;;;;;;;;5046639;28;20044;-59
2023/09/11 11:41:08;;;;;;;3.40;1.13;;;;;;;;;;5045994;28;20055;-59
2023/09/11 11:43:34;;;;;;;2.50;1.23;;;;;;;;;;5045356;28;20509;-59
2023/09/11 11:45:59;;;;;;;2.53;1.50;;;;;;;;;;5045692;28;20040;-58
2023/09/11 11:48:27;;;;;;;2.17;1.30;;;;;;;;;;5046233;28;20029;-60
2023/09/11 11:50:53;;;;;;;2.75;1.30;;;;;;;;;;5047544;28;20651;-59
2023/09/11 11:53:22;;;;;;;1.70;1.20;;;;;;;;;;5045847;28;20132;-59
2023/09/11 11:55:47;;;;;;;1.77;1.27;;;;;;;;;;5028817;28;20114;-59
2023/09/11 11:58:12;;;;;;;3.13;1.43;;;;;;;;;;5045963;28;20275;-59
2023/09/11 12:00:41;;;;;;;1.83;1.08;;;;;;;;;;5045942;28;20294;-60
2023/09/11 12:03:07;;;;;;;2.50;1.20;;;;;;;;;;5028508;28;20095;-59
2023/09/11 12:05:33;;;;;;;2.35;1.30;;;;;;;;;;5039162;28;20037;-58
2023/09/11 12:07:58;;;;;;;2.42;1.30;;;;;;;;;;5045715;28;20115;-59
2023/09/11 12:10:23;;;;;;;1.98;1.17;;;;;;;;;;5025646;28;20605;-59
2023/09/11 12:12:49;;;;;;;1.80;1.10;;;;;;;;;;5028623;28;20086;-59
2023/09/11 12:15:15;;;;;;;2.47;1.30;;;;;;;;;;5044877;28;20040;-59
2023/09/11 12:17:44;;;;;;;2.63;1.33;;;;;;;;;;5045285;28;20041;-60
2023/09/11 12:20:10;;;;;;;2.83;1.30;;;;;;;;;;5042018;28;20541;-59
2023/09/11 12:22:35;;;;;;;2.67;1.15;;;;;;;;;;5026572;28;20498;-59
2023/09/11 12:25:01;;;;;;;2.53;1.30;;;;;;;;;;5026319;28;20048;-59
2023/09/11 12:27:26;;;;;;;1.90;1.30;;;;;;;;;;5044915;28;20037;-59
2023/09/11 12:29:53;;;;;;;2.43;1.30;;;;;;;;;;5045002;28;20036;-59
2023/09/11 12:32:19;;;;;;;2.80;1.40;;;;;;;;;;5025049;28;20033;-59
2023/09/11 12:34:44;;;;;;;2.00;1.30;;;;;;;;;;5031303;28;20512;-58
2023/09/11 12:37:09;;;;;;;2.30;1.17;;;;;;;;;;5046554;28;20406;-60
2023/09/11 12:39:35;;;;;;;2.95;1.30;;;;;;;;;;5046544;28;20037;-60
2023/09/11 12:42:00;;;;;;;2.13;1.33;;;;;;;;;;5044764;28;20483;-60
2023/09/11 12:44:25;;;;;;;2.40;1.30;;;;;;;;;;5044915;28;20481;-59
2023/09/11 12:46:50;;;;;;;2.57;1.20;;;;;;;;;;5039685;28;20524;-60
2023/09/11 12:49:15;;;;;;;2.63;1.43;;;;;;;;;;5046340;28;20484;-58
2023/09/11 12:51:41;;;;;;;2.13;1.38;;;;;;;;;;5028401;28;20499;-60
2023/09/11 12:54:06;;;;;;;2.73;1.40;;;;;;;;;;5027981;28;20033;-60
2023/09/11 12:56:31;;;;;;;1.83;1.00;;;;;;;;;;5038597;28;20625;-60
2023/09/11 12:58:57;;;;;;;2.60;1.60;;;;;;;;;;5044896;28;20454;-59
2023/09/11 13:01:22;;;;;;;3.05;1.27;;;;;;;;;;5024408;28;20114;-58
2023/09/11 13:03:47;;;;;;;1.90;1.30;;;;;;;;;;5024472;28;20033;-59
2023/09/11 13:06:12;;;;;;;2.65;1.30;;;;;;;;;;5035716;28;20306;-58
2023/09/11 13:08:38;;;;;;;2.03;1.23;;;;;;;;;;5046364;28;20065;-60
2023/09/11 13:11:03;;;;;;;2.80;1.30;;;;;;;;;;5044236;28;20283;-58
2023/09/11 13:13:28;;;;;;;2.70;1.27;;;;;;;;;;5044298;28;20140;-59
2023/09/11 13:15:53;;;;;;;3.03;1.37;;;;;;;;;;5038003;28;20929;-59
2023/09/11 13:18:19;;;;;;;1.97;1.13;;;;;;;;;;5045534;28;20275;-59
2023/09/11 13:20:44;;;;;;;1.97;1.00;;;;;;;;;;5045819;28;20049;-60
2023/09/11 13:23:09;;;;;;;2.30;1.20;;;;;;;;;;5028005;28;20283;-59
2023/09/11 13:25:34;;;;;;;1.80;1.13;;;;;;;;;;5040031;28;20050;-59
2023/09/11 13:28:00;;;;;;;2.00;1.00;;;;;;;;;;5042904;28;20275;-57
2023/09/11 13:30:25;;;;;;;2.13;1.10;;;;;;;;;;5045296;28;20275;-59
2023/09/11 13:32:50;;;;;;;2.37;1.30;;;;;;;;;;5043898;28;20045;-60
2023/09/11 13:35:15;;;;;;;2.40;1.37;;;;;;;;;;5040217;28;20565;-59
2023/09/11 13:37:41;;;;;;;2.25;1.20;;;;;;;;;;5043139;28;20529;-58
2023/09/11 13:40:06;;;;;;;3.53;1.02;;;;;;;;;;5042592;28;20033;-59
2023/09/11 13:42:31;;;;;;;1.70;1.10;;;;;;;;;;5043813;28;20052;-59
2023/09/11 13:44:57;;;;;;;2.47;1.23;;;;;;;;;;5043652;28;20033;-58
2023/09/11 13:47:22;;;;;;;2.35;1.20;;;;;;;;;;5039843;28;20167;-59
2023/09/11 13:49:47;;;;;;;4.80;2.80;;;;;;;;;;5045308;28;20477;-58
2023/09/11 13:52:14;;;;;;;2.03;1.30;;;;;;;;;;5045134;28;20478;-58
2023/09/11 13:54:39;;;;;;;2.70;1.30;;;;;;;;;;5045777;28;20582;-59
2023/09/11 13:57:05;;;;;;;2.83;1.30;;;;;;;;;;5038605;28;20088;-59
2023/09/11 13:59:30;;;;;;;2.23;1.10;;;;;;;;;;5043819;28;20044;-59
2023/09/11 14:01:55;;;;;;;2.00;1.27;;;;;;;;;;5044417;28;20084;-60
2023/09/11 14:04:20;;;;;;;2.05;1.20;;;;;;;;;;5044616;28;20071;-60
2023/09/11 14:06:45;;;;;;;1.77;1.27;;;;;;;;;;5038474;28;20029;-58
2023/09/11 14:09:12;;;;;;;3.00;1.33;;;;;;;;;;5026971;28;20263;-59
2023/09/11 14:11:37;;;;;;;2.17;1.23;;;;;;;;;;5044008;28;20134;-58
2023/09/11 14:14:02;;;;;;;2.80;1.07;;;;;;;;;;5043739;28;20497;-58
2023/09/11 14:16:27;;;;;;;1.67;1.10;;;;;;;;;;5038654;28;20505;-59
2023/09/11 14:18:53;;;;;;;2.33;1.33;;;;;;;;;;5044989;28;20072;-59
2023/09/11 14:21:18;;;;;;;1.53;0.97;;;;;;;;;;5045120;28;20300;-58
2023/09/11 14:23:43;;;;;;;1.83;1.17;;;;;;;;;;5027152;28;20272;-58
2023/09/11 14:26:08;;;;;;;2.17;1.10;;;;;;;;;;5044697;28;20525;-58
2023/09/11 14:28:34;;;;;;;2.10;1.30;;;;;;;;;;5044303;28;20430;-58
2023/09/11 14:30:59;;;;;;;1.90;1.20;;;;;;;;;;5043554;28;20428;-58
2023/09/11 14:33:25;;;;;;;3.27;1.30;;;;;;;;;;5045090;28;20483;-58
2023/09/11 14:35:50;;;;;;;1.40;0.90;;;;;;;;;;5040751;28;20276;-60